sensor_id;sensor_type;location;lat;lon;timestamp;pressure;altitude;pressure_sealevel;temperature;humidity
77013;BME280;67260;53.130;17.982;2023-07-31T00:00:20;100540.29;;;17.14;74.90
77013;BME280;67260;53.130;17.982;2023-07-31T00:03:07;100540.04;;;17.11;74.77
77013;BME280;67260;53.130;17.982;2023-07-31T00:05:34;100542.02;;;17.09;74.88
77013;BME280;67260;53.130;17.982;2023-07-31T00:08:01;100542.31;;;17.12;75.00
77013;BME280;67260;53.130;17.982;2023-07-31T00:10:27;100542.75;;;17.13;74.93
77013;BME280;67260;53.130;17.982;2023-07-31T00:12:54;100540.63;;;17.10;75.14
77013;BME280;67260;53.130;17.982;2023-07-31T00:15:38;100540.45;;;17.08;75.09
77013;BME280;67260;53.130;17.982;2023-07-31T00:18:05;100534.39;;;17.03;75.37
77013;BME280;67260;53.130;17.982;2023-07-31T00:20:31;100534.77;;;17.02;75.37
77013;BME280;67260;53.130;17.982;2023-07-31T00:22:58;100535.19;;;17.03;75.42
77013;BME280;67260;53.130;17.982;2023-07-31T00:25:25;100526.65;;;17.03;75.36
77013;BME280;67260;53.130;17.982;2023-07-31T00:27:51;100527.56;;;17.03;75.39
77013;BME280;67260;53.130;17.982;2023-07-31T00:30:18;100529.24;;;17.04;75.48
77013;BME280;67260;53.130;17.982;2023-07-31T00:32:45;100533.45;;;17.05;75.38
77013;BME280;67260;53.130;17.982;2023-07-31T00:35:12;100534.29;;;17.04;75.54
77013;BME280;67260;53.130;17.982;2023-07-31T00:37:39;100533.70;;;17.03;75.45
77013;BME280;67260;53.130;17.982;2023-07-31T00:40:06;100533.73;;;17.02;75.71
77013;BME280;67260;53.130;17.982;2023-07-31T00:42:35;100531.69;;;17.00;75.62
77013;BME280;67260;53.130;17.982;2023-07-31T00:45:02;100533.09;;;17.02;75.76
77013;BME280;67260;53.130;17.982;2023-07-31T00:47:42;100531.85;;;17.01;75.95
77013;BME280;67260;53.130;17.982;2023-07-31T00:50:16;100534.10;;;17.01;75.98
77013;BME280;67260;53.130;17.982;2023-07-31T00:52:45;100538.44;;;16.99;76.29
77013;BME280;67260;53.130;17.982;2023-07-31T00:55:25;100540.79;;;16.98;76.15
77013;BME280;67260;53.130;17.982;2023-07-31T00:57:55;100543.43;;;16.95;76.35
77013;BME280;67260;53.130;17.982;2023-07-31T01:00:22;100545.73;;;16.93;76.57
77013;BME280;67260;53.130;17.982;2023-07-31T01:02:50;100547.48;;;16.91;76.72
77013;BME280;67260;53.130;17.982;2023-07-31T01:05:54;100550.13;;;16.88;76.57
77013;BME280;67260;53.130;17.982;2023-07-31T01:08:24;100548.07;;;16.87;76.89
77013;BME280;67260;53.130;17.982;2023-07-31T01:11:42;100550.92;;;16.88;76.72
77013;BME280;67260;53.130;17.982;2023-07-31T01:14:06;100557.05;;;16.88;77.00
77013;BME280;67260;53.130;17.982;2023-07-31T01:16:33;100559.27;;;16.91;76.98
77013;BME280;67260;53.130;17.982;2023-07-31T01:19:03;100558.93;;;16.93;76.87
77013;BME280;67260;53.130;17.982;2023-07-31T01:22:13;100559.55;;;16.92;76.87
77013;BME280;67260;53.130;17.982;2023-07-31T01:25:08;100562.27;;;16.89;76.88
77013;BME280;67260;53.130;17.982;2023-07-31T01:27:53;100563.67;;;16.86;77.00
77013;BME280;67260;53.130;17.982;2023-07-31T01:30:34;100559.30;;;16.83;76.89
77013;BME280;67260;53.130;17.982;2023-07-31T01:33:04;100561.05;;;16.76;77.12
77013;BME280;67260;53.130;17.982;2023-07-31T01:35:34;100561.19;;;16.74;77.35
77013;BME280;67260;53.130;17.982;2023-07-31T01:38:01;100557.73;;;16.72;77.27
77013;BME280;67260;53.130;17.982;2023-07-31T01:40:36;100555.59;;;16.68;77.14
77013;BME280;67260;53.130;17.982;2023-07-31T01:43:10;100555.70;;;16.64;77.55
77013;BME280;67260;53.130;17.982;2023-07-31T01:45:37;100550.39;;;16.59;77.54
77013;BME280;67260;53.130;17.982;2023-07-31T01:48:05;100546.15;;;16.55;77.80
77013;BME280;67260;53.130;17.982;2023-07-31T01:50:34;100548.77;;;16.51;77.92
77013;BME280;67260;53.130;17.982;2023-07-31T01:53:09;100553.52;;;16.47;78.09
77013;BME280;67260;53.130;17.982;2023-07-31T01:55:36;100552.73;;;16.44;78.22
77013;BME280;67260;53.130;17.982;2023-07-31T01:58:02;100552.96;;;16.42;78.17
77013;BME280;67260;53.130;17.982;2023-07-31T02:00:29;100552.98;;;16.38;78.44
77013;BME280;67260;53.130;17.982;2023-07-31T02:03:01;100555.73;;;16.37;78.52
77013;BME280;67260;53.130;17.982;2023-07-31T02:05:37;100548.74;;;16.34;78.47
77013;BME280;67260;53.130;17.982;2023-07-31T02:08:15;100549.40;;;16.31;78.67
77013;BME280;67260;53.130;17.982;2023-07-31T02:10:46;100551.65;;;16.28;78.82
77013;BME280;67260;53.130;17.982;2023-07-31T02:13:13;100552.54;;;16.26;78.82
77013;BME280;67260;53.130;17.982;2023-07-31T02:15:40;100551.02;;;16.20;78.77
77013;BME280;67260;53.130;17.982;2023-07-31T02:18:07;100551.67;;;16.13;78.93
77013;BME280;67260;53.130;17.982;2023-07-31T02:20:39;100552.50;;;16.07;79.30
77013;BME280;67260;53.130;17.982;2023-07-31T02:23:20;100555.48;;;16.01;79.37
77013;BME280;67260;53.130;17.982;2023-07-31T02:25:47;100557.70;;;15.96;79.60
77013;BME280;67260;53.130;17.982;2023-07-31T02:28:14;100556.30;;;15.89;79.74
77013;BME280;67260;53.130;17.982;2023-07-31T02:30:44;100554.30;;;15.84;79.89
77013;BME280;67260;53.130;17.982;2023-07-31T02:33:23;100552.52;;;15.79;80.08
77013;BME280;67260;53.130;17.982;2023-07-31T02:35:52;100560.30;;;15.81;80.18
77013;BME280;67260;53.130;17.982;2023-07-31T02:38:19;100564.08;;;15.79;80.26
77013;BME280;67260;53.130;17.982;2023-07-31T02:40:46;100563.14;;;15.80;80.22
77013;BME280;67260;53.130;17.982;2023-07-31T02:43:12;100564.13;;;15.82;80.05
77013;BME280;67260;53.130;17.982;2023-07-31T02:45:39;100567.16;;;15.80;80.33
77013;BME280;67260;53.130;17.982;2023-07-31T02:48:06;100567.05;;;15.80;80.16
77013;BME280;67260;53.130;17.982;2023-07-31T02:50:33;100563.58;;;15.77;80.28
77013;BME280;67260;53.130;17.982;2023-07-31T02:53:00;100564.74;;;15.77;80.23
77013;BME280;67260;53.130;17.982;2023-07-31T02:55:27;100566.45;;;15.73;80.33
77013;BME280;67260;53.130;17.982;2023-07-31T02:57:54;100567.05;;;15.73;80.31
77013;BME280;67260;53.130;17.982;2023-07-31T03:00:21;100562.98;;;15.73;80.36
77013;BME280;67260;53.130;17.982;2023-07-31T03:02:49;100560.27;;;15.75;80.15
77013;BME280;67260;53.130;17.982;2023-07-31T03:05:15;100557.04;;;15.73;80.11
77013;BME280;67260;53.130;17.982;2023-07-31T03:07:42;100556.13;;;15.70;80.20
77013;BME280;67260;53.130;17.982;2023-07-31T03:10:09;100556.23;;;15.66;80.04
77013;BME280;67260;53.130;17.982;2023-07-31T03:12:37;100554.50;;;15.61;80.28
77013;BME280;67260;53.130;17.982;2023-07-31T03:15:06;100556.30;;;15.59;80.40
77013;BME280;67260;53.130;17.982;2023-07-31T03:17:32;100560.54;;;15.59;80.52
77013;BME280;67260;53.130;17.982;2023-07-31T03:19:59;100565.77;;;15.58;80.38
77013;BME280;67260;53.130;17.982;2023-07-31T03:22:26;100562.16;;;15.57;80.35
77013;BME280;67260;53.130;17.982;2023-07-31T03:24:54;100565.27;;;15.62;80.41
77013;BME280;67260;53.130;17.982;2023-07-31T03:27:31;100572.24;;;15.66;80.14
77013;BME280;67260;53.130;17.982;2023-07-31T03:29:59;100577.91;;;15.72;80.03
77013;BME280;67260;53.130;17.982;2023-07-31T03:32:27;100579.65;;;15.77;79.78
77013;BME280;67260;53.130;17.982;2023-07-31T03:34:54;100583.36;;;15.82;79.90
77013;BME280;67260;53.130;17.982;2023-07-31T03:37:21;100584.70;;;15.92;79.57
77013;BME280;67260;53.130;17.982;2023-07-31T03:39:48;100587.19;;;16.00;79.31
77013;BME280;67260;53.130;17.982;2023-07-31T03:42:17;100591.65;;;16.09;79.00
77013;BME280;67260;53.130;17.982;2023-07-31T03:44:46;100591.40;;;16.17;79.05
77013;BME280;67260;53.130;17.982;2023-07-31T03:47:12;100592.18;;;16.28;78.73
77013;BME280;67260;53.130;17.982;2023-07-31T03:49:40;100594.60;;;16.28;78.26
77013;BME280;67260;53.130;17.982;2023-07-31T03:52:08;100596.80;;;16.25;78.44
77013;BME280;67260;53.130;17.982;2023-07-31T03:54:37;100595.39;;;16.27;78.52
77013;BME280;67260;53.130;17.982;2023-07-31T03:57:04;100595.57;;;16.28;78.23
77013;BME280;67260;53.130;17.982;2023-07-31T03:59:30;100595.61;;;16.35;78.07
77013;BME280;67260;53.130;17.982;2023-07-31T04:01:57;100598.20;;;16.57;77.82
77013;BME280;67260;53.130;17.982;2023-07-31T04:04:24;100598.39;;;16.77;77.10
77013;BME280;67260;53.130;17.982;2023-07-31T04:06:52;100599.11;;;16.91;76.67
77013;BME280;67260;53.130;17.982;2023-07-31T04:09:20;100598.02;;;17.05;76.62
77013;BME280;67260;53.130;17.982;2023-07-31T04:11:46;100592.89;;;17.08;76.01
77013;BME280;67260;53.130;17.982;2023-07-31T04:14:13;100591.16;;;17.06;75.84
77013;BME280;67260;53.130;17.982;2023-07-31T04:16:41;100583.52;;;17.10;75.86
77013;BME280;67260;53.130;17.982;2023-07-31T04:19:08;100585.89;;;17.10;75.56
77013;BME280;67260;53.130;17.982;2023-07-31T04:21:57;100591.52;;;17.04;75.27
77013;BME280;67260;53.130;17.982;2023-07-31T04:24:39;100587.58;;;16.97;75.22
77013;BME280;67260;53.130;17.982;2023-07-31T04:27:22;100585.20;;;16.91;75.44
77013;BME280;67260;53.130;17.982;2023-07-31T04:30:08;100582.94;;;16.86;75.24
77013;BME280;67260;53.130;17.982;2023-07-31T04:32:36;100583.34;;;16.79;75.15
77013;BME280;67260;53.130;17.982;2023-07-31T04:35:11;100580.91;;;16.74;74.79
77013;BME280;67260;53.130;17.982;2023-07-31T04:37:38;100577.86;;;16.74;75.11
77013;BME280;67260;53.130;17.982;2023-07-31T04:40:36;100583.55;;;16.97;74.69
77013;BME280;67260;53.130;17.982;2023-07-31T04:43:06;100585.61;;;17.24;74.10
77013;BME280;67260;53.130;17.982;2023-07-31T04:45:36;100587.33;;;17.55;73.63
77013;BME280;67260;53.130;17.982;2023-07-31T04:48:18;100588.11;;;18.01;72.06
77013;BME280;67260;53.130;17.982;2023-07-31T04:50:47;100595.15;;;18.46;71.39
77013;BME280;67260;53.130;17.982;2023-07-31T04:53:30;100589.73;;;19.15;69.95
77013;BME280;67260;53.130;17.982;2023-07-31T04:56:32;100589.32;;;19.70;67.70
77013;BME280;67260;53.130;17.982;2023-07-31T04:59:10;100589.28;;;19.97;67.83
77013;BME280;67260;53.130;17.982;2023-07-31T05:01:56;100594.62;;;20.63;65.20
77013;BME280;67260;53.130;17.982;2023-07-31T05:04:43;100596.27;;;21.27;64.04
77013;BME280;67260;53.130;17.982;2023-07-31T05:07:10;100599.96;;;21.66;62.54
77013;BME280;67260;53.130;17.982;2023-07-31T05:09:39;100600.45;;;21.49;62.75
77013;BME280;67260;53.130;17.982;2023-07-31T05:12:07;100595.49;;;21.03;62.49
77013;BME280;67260;53.130;17.982;2023-07-31T05:14:35;100597.57;;;20.99;63.91
77013;BME280;67260;53.130;17.982;2023-07-31T05:17:02;100598.34;;;21.06;63.61
77013;BME280;67260;53.130;17.982;2023-07-31T05:19:38;100598.62;;;21.35;62.03
77013;BME280;67260;53.130;17.982;2023-07-31T05:22:22;100600.56;;;21.15;61.93
77013;BME280;67260;53.130;17.982;2023-07-31T05:24:54;100598.94;;;20.96;61.86
77013;BME280;67260;53.130;17.982;2023-07-31T05:27:24;100593.85;;;20.89;61.95
77013;BME280;67260;53.130;17.982;2023-07-31T05:30:18;100592.74;;;21.51;59.38
77013;BME280;67260;53.130;17.982;2023-07-31T05:32:52;100596.93;;;22.38;58.00
77013;BME280;67260;53.130;17.982;2023-07-31T05:35:36;100589.62;;;23.24;55.73
77013;BME280;67260;53.130;17.982;2023-07-31T05:38:25;100584.52;;;24.06;54.36
77013;BME280;67260;53.130;17.982;2023-07-31T05:41:08;100583.58;;;24.94;51.32
77013;BME280;67260;53.130;17.982;2023-07-31T05:43:41;100589.77;;;24.89;49.47
77013;BME280;67260;53.130;17.982;2023-07-31T05:46:11;100585.92;;;25.43;48.28
77013;BME280;67260;53.130;17.982;2023-07-31T05:48:41;100584.11;;;25.69;47.59
77013;BME280;67260;53.130;17.982;2023-07-31T05:51:30;100586.32;;;26.29;47.93
77013;BME280;67260;53.130;17.982;2023-07-31T05:53:57;100592.59;;;26.96;45.93
77013;BME280;67260;53.130;17.982;2023-07-31T05:56:24;100586.08;;;27.61;45.22
77013;BME280;67260;53.130;17.982;2023-07-31T05:58:51;100589.63;;;28.17;44.49
77013;BME280;67260;53.130;17.982;2023-07-31T06:01:19;100593.11;;;28.81;42.89
77013;BME280;67260;53.130;17.982;2023-07-31T06:03:53;100593.55;;;28.90;41.46
77013;BME280;67260;53.130;17.982;2023-07-31T06:06:19;100591.80;;;29.04;41.08
77013;BME280;67260;53.130;17.982;2023-07-31T06:08:46;100587.46;;;29.41;39.82
77013;BME280;67260;53.130;17.982;2023-07-31T06:11:13;100589.11;;;29.78;39.46
77013;BME280;67260;53.130;17.982;2023-07-31T06:13:39;100589.45;;;30.33;39.08
77013;BME280;67260;53.130;17.982;2023-07-31T06:16:06;100588.17;;;31.11;38.37
77013;BME280;67260;53.130;17.982;2023-07-31T06:18:33;100591.86;;;31.56;36.44
77013;BME280;67260;53.130;17.982;2023-07-31T06:20:59;100591.45;;;32.15;35.77
77013;BME280;67260;53.130;17.982;2023-07-31T06:23:26;100588.48;;;32.68;34.77
77013;BME280;67260;53.130;17.982;2023-07-31T06:25:53;100584.44;;;32.76;32.31
77013;BME280;67260;53.130;17.982;2023-07-31T06:28:19;100585.59;;;32.68;32.91
77013;BME280;67260;53.130;17.982;2023-07-31T06:30:46;100584.05;;;32.91;32.79
77013;BME280;67260;53.130;17.982;2023-07-31T06:33:13;100582.30;;;33.01;32.04
77013;BME280;67260;53.130;17.982;2023-07-31T06:35:40;100584.91;;;33.05;31.57
77013;BME280;67260;53.130;17.982;2023-07-31T06:38:07;100590.16;;;32.53;31.62
77013;BME280;67260;53.130;17.982;2023-07-31T06:40:33;100592.63;;;31.13;32.70
77013;BME280;67260;53.130;17.982;2023-07-31T06:43:00;100590.81;;;30.41;34.12
77013;BME280;67260;53.130;17.982;2023-07-31T06:45:35;100590.50;;;29.65;34.23
77013;BME280;67260;53.130;17.982;2023-07-31T06:48:07;100595.38;;;28.71;35.14
77013;BME280;67260;53.130;17.982;2023-07-31T06:50:42;100593.13;;;28.02;36.11
77013;BME280;67260;53.130;17.982;2023-07-31T06:53:09;100598.15;;;27.49;37.06
77013;BME280;67260;53.130;17.982;2023-07-31T06:55:36;100597.52;;;26.54;38.37
77013;BME280;67260;53.130;17.982;2023-07-31T06:58:02;100594.35;;;25.79;39.83
77013;BME280;67260;53.130;17.982;2023-07-31T07:00:29;100596.73;;;25.37;40.48
77013;BME280;67260;53.130;17.982;2023-07-31T07:02:56;100591.84;;;25.18;40.88
77013;BME280;67260;53.130;17.982;2023-07-31T07:05:22;100593.02;;;25.14;41.46
77013;BME280;67260;53.130;17.982;2023-07-31T07:07:50;100593.48;;;24.63;41.99
77013;BME280;67260;53.130;17.982;2023-07-31T07:10:18;100591.63;;;23.98;43.15
77013;BME280;67260;53.130;17.982;2023-07-31T07:12:45;100588.71;;;23.56;44.13
77013;BME280;67260;53.130;17.982;2023-07-31T07:15:12;100596.60;;;23.10;45.47
77013;BME280;67260;53.130;17.982;2023-07-31T07:17:39;100595.50;;;22.87;46.28
77013;BME280;67260;53.130;17.982;2023-07-31T07:20:06;100598.83;;;22.85;46.65
77013;BME280;67260;53.130;17.982;2023-07-31T07:22:34;100602.58;;;22.94;47.09
77013;BME280;67260;53.130;17.982;2023-07-31T07:25:03;100601.41;;;23.07;47.29
77013;BME280;67260;53.130;17.982;2023-07-31T07:27:30;100606.30;;;23.14;47.11
77013;BME280;67260;53.130;17.982;2023-07-31T07:29:57;100601.86;;;23.36;46.82
77013;BME280;67260;53.130;17.982;2023-07-31T07:32:24;100594.39;;;23.89;45.47
77013;BME280;67260;53.130;17.982;2023-07-31T07:34:51;100598.97;;;23.88;45.68
77013;BME280;67260;53.130;17.982;2023-07-31T07:37:17;100597.94;;;23.96;45.51
77013;BME280;67260;53.130;17.982;2023-07-31T07:39:44;100603.54;;;24.20;45.33
77013;BME280;67260;53.130;17.982;2023-07-31T07:42:11;100601.84;;;24.17;44.74
77013;BME280;67260;53.130;17.982;2023-07-31T07:44:38;100601.75;;;23.81;45.19
77013;BME280;67260;53.130;17.982;2023-07-31T07:47:05;100598.48;;;23.44;45.84
77013;BME280;67260;53.130;17.982;2023-07-31T07:49:34;100594.05;;;23.32;46.78
77013;BME280;67260;53.130;17.982;2023-07-31T07:52:02;100592.80;;;23.29;46.57
77013;BME280;67260;53.130;17.982;2023-07-31T07:54:28;100599.77;;;23.24;46.92
77013;BME280;67260;53.130;17.982;2023-07-31T07:56:55;100601.27;;;23.11;47.02
77013;BME280;67260;53.130;17.982;2023-07-31T07:59:22;100604.86;;;22.97;47.44
77013;BME280;67260;53.130;17.982;2023-07-31T08:01:48;100597.66;;;22.86;47.94
77013;BME280;67260;53.130;17.982;2023-07-31T08:04:15;100596.61;;;22.78;47.98
77013;BME280;67260;53.130;17.982;2023-07-31T08:06:42;100596.65;;;22.57;47.81
77013;BME280;67260;53.130;17.982;2023-07-31T08:09:09;100599.48;;;22.31;47.81
77013;BME280;67260;53.130;17.982;2023-07-31T08:11:36;100595.53;;;22.12;48.35
77013;BME280;67260;53.130;17.982;2023-07-31T08:14:02;100594.49;;;22.00;48.40
77013;BME280;67260;53.130;17.982;2023-07-31T08:16:29;100594.70;;;21.89;48.88
77013;BME280;67260;53.130;17.982;2023-07-31T08:18:56;100597.20;;;21.94;48.86
77013;BME280;67260;53.130;17.982;2023-07-31T08:21:23;100603.81;;;22.06;48.68
77013;BME280;67260;53.130;17.982;2023-07-31T08:23:51;100601.21;;;22.11;48.56
77013;BME280;67260;53.130;17.982;2023-07-31T08:26:19;100602.14;;;22.21;48.29
77013;BME280;67260;53.130;17.982;2023-07-31T08:28:48;100600.64;;;22.20;47.77
77013;BME280;67260;53.130;17.982;2023-07-31T08:31:14;100594.65;;;22.29;47.95
77013;BME280;67260;53.130;17.982;2023-07-31T08:33:41;100597.41;;;22.44;47.83
77013;BME280;67260;53.130;17.982;2023-07-31T08:36:08;100592.14;;;22.68;47.35
77013;BME280;67260;53.130;17.982;2023-07-31T08:38:35;100595.95;;;22.75;47.12
77013;BME280;67260;53.130;17.982;2023-07-31T08:41:04;100592.08;;;23.11;46.65
77013;BME280;67260;53.130;17.982;2023-07-31T08:43:32;100583.39;;;23.83;44.98
77013;BME280;67260;53.130;17.982;2023-07-31T08:45:59;100579.10;;;24.32;44.26
77013;BME280;67260;53.130;17.982;2023-07-31T08:48:28;100575.41;;;24.84;44.54
77013;BME280;67260;53.130;17.982;2023-07-31T08:50:55;100573.08;;;25.23;43.22
77013;BME280;67260;53.130;17.982;2023-07-31T08:53:22;100571.48;;;25.25;43.16
77013;BME280;67260;53.130;17.982;2023-07-31T08:55:49;100574.85;;;24.95;43.53
77013;BME280;67260;53.130;17.982;2023-07-31T08:58:17;100573.58;;;24.63;44.82
77013;BME280;67260;53.130;17.982;2023-07-31T09:00:46;100571.55;;;24.44;44.34
77013;BME280;67260;53.130;17.982;2023-07-31T09:03:18;100568.14;;;24.25;44.68
77013;BME280;67260;53.130;17.982;2023-07-31T09:05:46;100569.06;;;24.22;44.78
77013;BME280;67260;53.130;17.982;2023-07-31T09:08:17;100562.05;;;24.05;45.22
77013;BME280;67260;53.130;17.982;2023-07-31T09:10:45;100556.00;;;23.93;45.78
77013;BME280;67260;53.130;17.982;2023-07-31T09:13:16;100553.73;;;23.82;45.69
77013;BME280;67260;53.130;17.982;2023-07-31T09:15:45;100556.04;;;23.73;46.09
77013;BME280;67260;53.130;17.982;2023-07-31T09:18:12;100550.80;;;23.69;46.05
77013;BME280;67260;53.130;17.982;2023-07-31T09:20:44;100548.91;;;23.72;46.59
77013;BME280;67260;53.130;17.982;2023-07-31T09:23:13;100544.13;;;23.53;46.90
77013;BME280;67260;53.130;17.982;2023-07-31T09:25:44;100545.41;;;23.58;46.91
77013;BME280;67260;53.130;17.982;2023-07-31T09:28:11;100541.70;;;23.48;47.42
77013;BME280;67260;53.130;17.982;2023-07-31T09:30:54;100540.33;;;23.01;47.86
77013;BME280;67260;53.130;17.982;2023-07-31T09:33:23;100545.23;;;22.50;48.72
77013;BME280;67260;53.130;17.982;2023-07-31T09:35:49;100544.95;;;22.20;49.78
77013;BME280;67260;53.130;17.982;2023-07-31T09:38:17;100539.94;;;22.04;50.01
77013;BME280;67260;53.130;17.982;2023-07-31T09:40:50;100534.39;;;22.25;49.87
77013;BME280;67260;53.130;17.982;2023-07-31T09:43:21;100530.00;;;22.69;49.49
77013;BME280;67260;53.130;17.982;2023-07-31T09:45:56;100525.41;;;22.91;49.42
77013;BME280;67260;53.130;17.982;2023-07-31T09:48:29;100520.17;;;22.82;49.29
77013;BME280;67260;53.130;17.982;2023-07-31T09:51:04;100521.23;;;22.65;49.78
77013;BME280;67260;53.130;17.982;2023-07-31T09:53:31;100520.76;;;22.38;49.69
77013;BME280;67260;53.130;17.982;2023-07-31T09:55:59;100523.37;;;21.93;50.24
77013;BME280;67260;53.130;17.982;2023-07-31T09:58:28;100525.51;;;21.46;51.65
77013;BME280;67260;53.130;17.982;2023-07-31T10:00:57;100531.92;;;21.09;53.47
77013;BME280;67260;53.130;17.982;2023-07-31T10:03:26;100548.20;;;20.73;56.01
77013;BME280;67260;53.130;17.982;2023-07-31T10:05:56;100549.86;;;20.38;57.66
77013;BME280;67260;53.130;17.982;2023-07-31T10:08:28;100544.71;;;20.08;59.31
77013;BME280;67260;53.130;17.982;2023-07-31T10:11:04;100529.96;;;19.98;60.49
77013;BME280;67260;53.130;17.982;2023-07-31T10:13:32;100527.70;;;20.12;60.42
77013;BME280;67260;53.130;17.982;2023-07-31T10:16:00;100521.92;;;20.34;60.58
77013;BME280;67260;53.130;17.982;2023-07-31T10:18:33;100519.45;;;20.48;61.08
77013;BME280;67260;53.130;17.982;2023-07-31T10:21:07;100518.32;;;20.50;61.41
77013;BME280;67260;53.130;17.982;2023-07-31T10:23:41;100517.52;;;20.57;61.29
77013;BME280;67260;53.130;17.982;2023-07-31T10:26:19;100507.99;;;20.72;61.80
77013;BME280;67260;53.130;17.982;2023-07-31T10:28:58;100502.85;;;20.88;61.85
77013;BME280;67260;53.130;17.982;2023-07-31T10:31:27;100500.52;;;21.03;61.77
77013;BME280;67260;53.130;17.982;2023-07-31T10:33:58;100496.11;;;21.16;61.77
77013;BME280;67260;53.130;17.982;2023-07-31T10:36:30;100491.91;;;21.37;61.55
77013;BME280;67260;53.130;17.982;2023-07-31T10:39:03;100483.34;;;21.52;61.37
77013;BME280;67260;53.130;17.982;2023-07-31T10:41:32;100479.16;;;21.94;60.34
77013;BME280;67260;53.130;17.982;2023-07-31T10:44:00;100468.17;;;22.35;59.99
77013;BME280;67260;53.130;17.982;2023-07-31T10:46:36;100455.34;;;22.52;60.05
77013;BME280;67260;53.130;17.982;2023-07-31T10:49:06;100450.00;;;22.65;59.57
77013;BME280;67260;53.130;17.982;2023-07-31T10:51:47;100447.28;;;23.30;58.86
77013;BME280;67260;53.130;17.982;2023-07-31T10:54:16;100446.05;;;23.98;58.16
77013;BME280;67260;53.130;17.982;2023-07-31T10:56:51;100445.89;;;24.40;56.67
77013;BME280;67260;53.130;17.982;2023-07-31T10:59:26;100441.38;;;24.43;55.62
77013;BME280;67260;53.130;17.982;2023-07-31T11:01:57;100438.09;;;24.26;53.03
77013;BME280;67260;53.130;17.982;2023-07-31T11:04:31;100436.17;;;24.13;51.07
77013;BME280;67260;53.130;17.982;2023-07-31T11:07:01;100430.91;;;23.85;51.01
77013;BME280;67260;53.130;17.982;2023-07-31T11:09:31;100431.67;;;23.47;49.30
77013;BME280;67260;53.130;17.982;2023-07-31T11:12:01;100436.41;;;22.93;50.32
77013;BME280;67260;53.130;17.982;2023-07-31T11:14:28;100437.30;;;22.36;51.15
77013;BME280;67260;53.130;17.982;2023-07-31T11:17:24;100438.25;;;21.91;52.58
77013;BME280;67260;53.130;17.982;2023-07-31T11:19:59;100444.86;;;21.45;53.72
77013;BME280;67260;53.130;17.982;2023-07-31T11:22:27;100445.92;;;21.16;54.36
77013;BME280;67260;53.130;17.982;2023-07-31T11:24:54;100452.16;;;20.92;54.90
77013;BME280;67260;53.130;17.982;2023-07-31T11:27:23;100453.29;;;20.67;55.66
77013;BME280;67260;53.130;17.982;2023-07-31T11:29:51;100461.71;;;20.43;57.02
77013;BME280;67260;53.130;17.982;2023-07-31T11:32:17;100467.61;;;20.12;58.52
77013;BME280;67260;53.130;17.982;2023-07-31T11:34:54;100476.95;;;19.79;60.18
77013;BME280;67260;53.130;17.982;2023-07-31T11:37:22;100475.18;;;19.55;62.95
77013;BME280;67260;53.130;17.982;2023-07-31T11:40:02;100473.71;;;19.39;63.84
77013;BME280;67260;53.130;17.982;2023-07-31T11:42:31;100473.94;;;19.44;64.27
77013;BME280;67260;53.130;17.982;2023-07-31T11:45:14;100468.76;;;19.62;65.63
77013;BME280;67260;53.130;17.982;2023-07-31T11:47:41;100462.17;;;19.97;65.55
77013;BME280;67260;53.130;17.982;2023-07-31T11:50:15;100465.31;;;20.36;64.49
77013;BME280;67260;53.130;17.982;2023-07-31T11:52:59;100464.85;;;20.46;64.39
77013;BME280;67260;53.130;17.982;2023-07-31T11:55:29;100458.25;;;20.48;64.02
77013;BME280;67260;53.130;17.982;2023-07-31T11:58:19;100458.89;;;20.59;63.11
77013;BME280;67260;53.130;17.982;2023-07-31T12:00:48;100456.93;;;20.69;62.81
77013;BME280;67260;53.130;17.982;2023-07-31T12:03:16;100462.37;;;20.92;62.43
77013;BME280;67260;53.130;17.982;2023-07-31T12:05:43;100465.39;;;21.22;61.39
77013;BME280;67260;53.130;17.982;2023-07-31T12:08:11;100462.11;;;21.39;60.27
77013;BME280;67260;53.130;17.982;2023-07-31T12:10:39;100461.17;;;21.52;59.48
77013;BME280;67260;53.130;17.982;2023-07-31T12:13:19;100454.04;;;21.53;59.44
77013;BME280;67260;53.130;17.982;2023-07-31T12:15:48;100456.80;;;21.77;59.01
77013;BME280;67260;53.130;17.982;2023-07-31T12:18:19;100452.80;;;22.09;58.73
77013;BME280;67260;53.130;17.982;2023-07-31T12:20:57;100449.74;;;22.29;57.24
77013;BME280;67260;53.130;17.982;2023-07-31T12:23:29;100441.38;;;22.27;56.84
77013;BME280;67260;53.130;17.982;2023-07-31T12:26:36;100436.42;;;22.25;57.09
77013;BME280;67260;53.130;17.982;2023-07-31T12:29:35;100433.27;;;22.10;57.08
77013;BME280;67260;53.130;17.982;2023-07-31T12:32:41;100432.59;;;21.93;56.75
77013;BME280;67260;53.130;17.982;2023-07-31T12:35:44;100427.58;;;21.65;57.10
77013;BME280;67260;53.130;17.982;2023-07-31T12:41:38;100417.69;;;21.13;58.37
77013;BME280;67260;53.130;17.982;2023-07-31T12:44:34;100419.95;;;20.81;59.27
77013;BME280;67260;53.130;17.982;2023-07-31T12:47:57;100421.70;;;20.50;60.40
77013;BME280;67260;53.130;17.982;2023-07-31T12:50:44;100413.08;;;20.38;60.87
77013;BME280;67260;53.130;17.982;2023-07-31T12:53:51;100421.27;;;20.26;61.40
77013;BME280;67260;53.130;17.982;2023-07-31T12:56:37;100416.23;;;20.06;61.89
77013;BME280;67260;53.130;17.982;2023-07-31T12:59:53;100418.86;;;19.86;62.64
77013;BME280;67260;53.130;17.982;2023-07-31T13:02:56;100420.28;;;19.72;63.23
77013;BME280;67260;53.130;17.982;2023-07-31T13:06:08;100416.45;;;19.72;63.32
77013;BME280;67260;53.130;17.982;2023-07-31T13:08:51;100415.48;;;19.94;63.20